createdAt,value
2022-11-17T00:00:01.360Z,3.00
2022-11-17T00:01:04.962Z,2.33
2022-11-17T00:02:01.450Z,2.40
2022-11-17T00:03:01.326Z,2.10
2022-11-17T00:04:01.324Z,2.17
2022-11-17T00:05:01.396Z,3.43
2022-11-17T00:06:02.657Z,3.63
2022-11-17T00:07:01.264Z,3.57
2022-11-17T00:08:01.351Z,4.03
2022-11-17T00:09:01.484Z,2.90
2022-11-17T00:10:01.539Z,4.00
2022-11-17T00:11:01.845Z,3.90
2022-11-17T00:12:00.988Z,3.20
2022-11-17T00:13:00.985Z,3.77
2022-11-17T00:14:00.979Z,3.00
2022-11-17T00:15:01.319Z,3.00
2022-11-17T00:16:00.983Z,3.97
2022-11-17T00:17:03.659Z,3.90
2022-11-17T00:18:01.608Z,3.57
2022-11-17T00:19:01.333Z,4.13
2022-11-17T00:20:01.030Z,3.90
2022-11-17T00:21:03.085Z,4.27
2022-11-17T00:22:01.010Z,3.57
2022-11-17T00:23:01.013Z,3.00
2022-11-17T00:24:01.644Z,3.73
2022-11-17T00:25:00.995Z,3.87
2022-11-17T00:26:01.308Z,4.93
2022-11-17T00:27:01.362Z,5.10
2022-11-17T00:28:01.321Z,2.77
2022-11-17T00:29:02.952Z,4.37
2022-11-17T00:30:01.423Z,4.43
2022-11-17T00:31:00.991Z,4.20
2022-11-17T00:32:01.370Z,4.57
2022-11-17T00:33:02.425Z,4.53
2022-11-17T00:34:01.299Z,4.00
2022-11-17T00:35:01.461Z,4.77
2022-11-17T00:36:01.000Z,3.47
2022-11-17T00:37:01.898Z,4.60
2022-11-17T00:38:01.322Z,4.13
2022-11-17T00:39:01.521Z,5.33
2022-11-17T00:40:01.744Z,4.47
2022-11-17T00:41:00.981Z,3.70
2022-11-17T00:42:01.336Z,3.90
2022-11-17T00:43:00.986Z,5.40
2022-11-17T00:44:01.403Z,4.87
2022-11-17T00:45:01.005Z,4.00
2022-11-17T00:46:00.992Z,4.27
2022-11-17T00:47:01.091Z,4.67
2022-11-17T00:48:00.999Z,4.23
2022-11-17T00:49:01.327Z,4.60
2022-11-17T00:50:00.993Z,4.23
2022-11-17T00:51:02.951Z,4.67
2022-11-17T00:52:00.990Z,4.17
2022-11-17T00:53:01.372Z,4.57
2022-11-17T00:54:01.994Z,5.27
2022-11-17T00:55:01.458Z,4.67
2022-11-17T00:56:00.982Z,4.33
2022-11-17T00:57:01.384Z,4.57
2022-11-17T00:58:00.979Z,5.27
2022-11-17T00:59:01.756Z,5.67
2022-11-17T01:00:01.014Z,4.93
2022-11-17T01:01:01.727Z,5.37
2022-11-17T01:02:01.638Z,4.80
2022-11-17T01:03:00.985Z,4.70
2022-11-17T01:04:01.706Z,5.23
2022-11-17T01:05:01.440Z,5.17
2022-11-17T01:06:06.658Z,4.07
2022-11-17T01:07:01.388Z,6.70
2022-11-17T01:08:00.997Z,5.00
2022-11-17T01:09:02.685Z,4.37
2022-11-17T01:10:01.329Z,3.50
2022-11-17T01:11:11.049Z,6.60
2022-11-17T01:12:01.352Z,4.83
2022-11-17T01:13:01.945Z,4.13
2022-11-17T01:14:01.631Z,5.23
2022-11-17T01:15:01.341Z,5.87
2022-11-17T01:16:04.448Z,4.10
2022-11-17T01:17:01.337Z,3.37
2022-11-17T01:18:01.313Z,4.27
2022-11-17T01:19:02.687Z,4.80
2022-11-17T01:20:01.047Z,4.57
2022-11-17T01:21:07.056Z,5.00
2022-11-17T01:22:00.998Z,6.17
2022-11-17T01:23:01.029Z,5.50
2022-11-17T01:24:01.801Z,5.33
2022-11-17T01:25:00.978Z,5.63
2022-11-17T01:26:04.484Z,5.00
2022-11-17T01:27:01.003Z,5.70
2022-11-17T01:28:00.998Z,6.03
2022-11-17T01:29:03.025Z,4.57
2022-11-17T01:30:01.402Z,8.43
2022-11-17T01:31:03.512Z,5.43
2022-11-17T01:32:01.332Z,7.13
2022-11-17T01:33:01.332Z,4.90
2022-11-17T01:34:01.443Z,5.17
2022-11-17T01:35:01.728Z,5.37
2022-11-17T01:36:03.132Z,5.33
2022-11-17T01:37:00.995Z,5.00
2022-11-17T01:38:00.985Z,5.73
2022-11-17T01:39:01.328Z,6.53
2022-11-17T01:40:01.343Z,5.40
2022-11-17T01:41:03.917Z,6.13
2022-11-17T01:42:03.754Z,6.70
2022-11-17T01:43:00.980Z,5.70
2022-11-17T01:44:20.398Z,4.83
2022-11-17T01:45:04.481Z,6.90
2022-11-17T01:46:01.688Z,5.80
2022-11-17T01:47:02.554Z,6.40
2022-11-17T01:48:04.653Z,6.60
2022-11-17T01:49:08.972Z,4.40
2022-11-17T01:50:06.365Z,6.40
2022-11-17T01:51:01.618Z,5.77
2022-11-17T01:52:07.065Z,4.63
2022-11-17T01:53:07.549Z,4.43
2022-11-17T01:54:02.182Z,7.40
2022-11-17T01:55:02.642Z,6.07
2022-11-17T01:56:07.305Z,4.63
2022-11-17T01:57:07.391Z,6.43
2022-11-17T01:58:05.596Z,6.73
2022-11-17T01:59:08.226Z,4.87
2022-11-17T02:00:04.733Z,6.43
2022-11-17T02:01:02.041Z,4.67
2022-11-17T02:02:01.838Z,5.97
2022-11-17T02:03:02.198Z,5.60
2022-11-17T02:04:01.332Z,6.57
2022-11-17T02:05:12.447Z,5.80
2022-11-17T02:06:06.337Z,5.77
2022-11-17T02:07:10.116Z,6.03
2022-11-17T02:08:05.116Z,5.20
2022-11-17T02:09:03.107Z,6.47
2022-11-17T02:10:04.595Z,7.30
2022-11-17T02:11:07.782Z,8.23
2022-11-17T02:12:02.377Z,7.63
2022-11-17T02:13:02.183Z,9.10
2022-11-17T02:14:03.065Z,6.70
2022-11-17T02:15:03.629Z,7.40
2022-11-17T02:16:01.983Z,7.67
2022-11-17T02:17:10.174Z,8.47
2022-11-17T02:18:02.524Z,6.83
2022-11-17T02:19:01.719Z,8.30
2022-11-17T02:20:06.570Z,6.73
2022-11-17T02:21:20.415Z,6.63
2022-11-17T02:22:18.585Z,7.60
2022-11-17T02:23:20.402Z,6.50
2022-11-17T02:24:20.404Z,7.37
2022-11-17T02:25:25.704Z,8.70
2022-11-17T02:26:20.409Z,8.27
2022-11-17T02:27:20.397Z,8.77
2022-11-17T02:28:12.205Z,7.97
2022-11-17T02:29:10.423Z,7.67
2022-11-17T02:30:04.439Z,8.20
2022-11-17T02:31:17.294Z,10.90
2022-11-17T02:32:08.357Z,8.27
2022-11-17T02:33:06.103Z,8.40
2022-11-17T02:34:10.142Z,7.33
2022-11-17T02:35:15.656Z,7.57
2022-11-17T02:36:07.148Z,8.37
2022-11-17T02:37:09.459Z,8.63
2022-11-17T02:38:10.869Z,8.57
2022-11-17T02:39:12.673Z,10.90
2022-11-17T02:40:09.820Z,7.67
2022-11-17T02:41:10.610Z,12.33
2022-11-17T02:42:08.447Z,9.97
2022-11-17T02:43:07.421Z,10.33
2022-11-17T02:44:06.601Z,10.33
2022-11-17T02:45:02.772Z,10.77
2022-11-17T02:46:06.012Z,10.20
2022-11-17T02:47:07.784Z,10.97
2022-11-17T02:48:05.178Z,10.33
2022-11-17T02:49:06.367Z,9.33
2022-11-17T02:50:05.684Z,9.33
2022-11-17T02:51:04.220Z,8.10
2022-11-17T02:52:03.946Z,7.33
2022-11-17T02:53:02.311Z,6.47
2022-11-17T02:54:01.677Z,7.47
2022-11-17T02:55:03.426Z,8.77
2022-11-17T02:56:01.556Z,8.20
2022-11-17T02:57:01.439Z,10.30
2022-11-17T02:58:00.983Z,9.30
2022-11-17T02:59:04.081Z,9.13
2022-11-17T03:00:04.598Z,7.80
2022-11-17T03:01:18.926Z,8.03
2022-11-17T03:02:19.329Z,6.70
2022-11-17T03:03:19.716Z,8.13
2022-11-17T03:04:20.400Z,8.50
2022-11-17T03:05:11.912Z,7.60
2022-11-17T03:06:16.009Z,8.43
2022-11-17T03:07:16.240Z,9.37
2022-11-17T03:08:13.172Z,7.43
2022-11-17T03:09:09.419Z,7.23
2022-11-17T03:10:10.225Z,7.63
2022-11-17T03:11:03.744Z,8.17
2022-11-17T03:12:09.536Z,7.87
2022-11-17T03:13:08.811Z,5.77
2022-11-17T03:14:09.219Z,7.27
2022-11-17T03:15:09.836Z,7.73
2022-11-17T03:16:13.078Z,7.10
2022-11-17T03:17:08.672Z,8.13
2022-11-17T03:18:08.223Z,6.13
2022-11-17T03:19:10.045Z,6.73
2022-11-17T03:20:07.728Z,6.83
2022-11-17T03:21:09.761Z,6.97
2022-11-17T03:22:07.507Z,8.00
2022-11-17T03:23:07.908Z,8.80
2022-11-17T03:24:04.804Z,6.50
2022-11-17T03:25:03.767Z,7.93
2022-11-17T03:26:04.768Z,8.27
2022-11-17T03:27:05.230Z,7.23
2022-11-17T03:28:05.955Z,7.90
2022-11-17T03:29:06.783Z,7.67
2022-11-17T03:30:05.483Z,7.47
2022-11-17T03:31:04.302Z,8.23
2022-11-17T03:32:05.721Z,7.20
2022-11-17T03:33:07.519Z,7.97
2022-11-17T03:34:07.957Z,7.63
2022-11-17T03:35:07.268Z,7.93
2022-11-17T03:36:06.998Z,7.67
2022-11-17T03:37:05.254Z,7.77
2022-11-17T03:38:08.385Z,6.70
2022-11-17T03:39:06.233Z,7.83
2022-11-17T03:40:05.572Z,8.10
2022-11-17T03:41:04.921Z,6.83
2022-11-17T03:42:05.224Z,5.70
2022-11-17T03:43:06.570Z,7.10
2022-11-17T03:44:04.375Z,7.43
2022-11-17T03:45:05.837Z,6.37
2022-11-17T03:46:06.496Z,6.60
2022-11-17T03:47:04.889Z,8.47
2022-11-17T03:48:09.781Z,6.57
2022-11-17T03:49:09.473Z,7.87
2022-11-17T03:50:08.259Z,7.13
2022-11-17T03:51:06.486Z,7.40
2022-11-17T03:52:01.106Z,6.43
2022-11-17T03:53:04.056Z,7.13
2022-11-17T03:54:01.606Z,6.47
2022-11-17T03:55:02.288Z,5.63
2022-11-17T03:56:11.038Z,7.50
2022-11-17T03:57:06.694Z,5.93
2022-11-17T03:58:06.768Z,6.63
2022-11-17T03:59:09.195Z,8.93
2022-11-17T04:00:04.213Z,6.53
2022-11-17T04:01:04.958Z,6.63
2022-11-17T04:02:01.458Z,8.53
2022-11-17T04:03:00.953Z,8.43
2022-11-17T04:04:01.476Z,6.50
2022-11-17T04:05:01.229Z,7.43
2022-11-17T04:06:01.410Z,7.77
2022-11-17T04:07:00.969Z,7.13
2022-11-17T04:08:01.250Z,7.70
2022-11-17T04:09:01.269Z,6.53
2022-11-17T04:10:01.917Z,7.80
2022-11-17T04:11:01.221Z,6.50
2022-11-17T04:12:01.235Z,7.07
2022-11-17T04:13:01.217Z,6.57
2022-11-17T04:14:01.244Z,7.23
2022-11-17T04:15:00.929Z,7.37
2022-11-17T04:16:01.242Z,8.07
2022-11-17T04:17:01.230Z,8.80
2022-11-17T04:18:01.550Z,8.17
2022-11-17T04:19:00.932Z,7.17
2022-11-17T04:20:01.217Z,7.17
2022-11-17T04:21:00.964Z,8.40
2022-11-17T04:22:00.936Z,7.13
2022-11-17T04:23:01.733Z,6.77
2022-11-17T04:24:01.374Z,8.60
2022-11-17T04:25:00.926Z,6.57
2022-11-17T04:26:01.272Z,7.80
2022-11-17T04:27:00.960Z,6.93
2022-11-17T04:28:01.224Z,6.23
2022-11-17T04:29:01.031Z,8.37
2022-11-17T04:30:01.232Z,8.00
2022-11-17T04:31:01.273Z,7.10
2022-11-17T04:32:00.999Z,6.43
2022-11-17T04:33:01.240Z,9.67
2022-11-17T04:34:02.923Z,7.57
2022-11-17T04:35:00.912Z,7.23
2022-11-17T04:36:02.080Z,7.70
2022-11-17T04:37:06.935Z,8.90
2022-11-17T04:38:00.918Z,7.23
2022-11-17T04:39:01.379Z,7.10
2022-11-17T04:40:01.288Z,7.47
2022-11-17T04:41:03.448Z,7.20
2022-11-17T04:42:01.054Z,9.13
2022-11-17T04:43:00.918Z,8.00
2022-11-17T04:44:02.270Z,8.97
2022-11-17T04:45:00.935Z,7.30
2022-11-17T04:46:01.229Z,6.00
2022-11-17T04:47:01.307Z,7.50
2022-11-17T04:48:00.911Z,7.53
2022-11-17T04:49:01.972Z,8.13
2022-11-17T04:50:00.924Z,7.87
2022-11-17T04:51:01.224Z,8.13
2022-11-17T04:52:01.547Z,6.87
2022-11-17T04:53:01.136Z,7.10
2022-11-17T04:54:01.895Z,7.30
2022-11-17T04:55:00.925Z,6.00
2022-11-17T04:56:01.447Z,7.53
2022-11-17T04:57:01.235Z,7.87
2022-11-17T04:58:00.928Z,7.37
2022-11-17T04:59:01.260Z,7.83
2022-11-17T05:00:00.930Z,6.93
2022-11-17T05:01:01.767Z,7.87
2022-11-17T05:02:05.587Z,7.53
2022-11-17T05:03:00.909Z,8.80
2022-11-17T05:04:02.919Z,5.73
2022-11-17T05:05:01.256Z,6.90
2022-11-17T05:06:00.917Z,8.30
2022-11-17T05:07:01.650Z,6.80
2022-11-17T05:08:00.912Z,7.73
2022-11-17T05:09:03.879Z,7.13
2022-11-17T05:10:00.926Z,7.07
2022-11-17T05:11:01.057Z,7.97
2022-11-17T05:12:01.228Z,8.37
2022-11-17T05:13:00.918Z,6.17
2022-11-17T05:14:02.178Z,8.17
2022-11-17T05:15:01.294Z,6.50
2022-11-17T05:16:00.933Z,6.37
2022-11-17T05:17:07.407Z,6.80
2022-11-17T05:18:00.925Z,6.77
2022-11-17T05:19:01.300Z,8.63
2022-11-17T05:20:00.935Z,8.60
2022-11-17T05:21:01.169Z,8.07
2022-11-17T05:22:01.691Z,7.93
2022-11-17T05:23:06.343Z,7.10
2022-11-17T05:24:01.323Z,7.03
2022-11-17T05:25:01.239Z,7.07
2022-11-17T05:26:01.139Z,7.83
2022-11-17T05:27:00.925Z,6.80
2022-11-17T05:28:00.914Z,6.90
2022-11-17T05:29:03.576Z,7.03
2022-11-17T05:30:01.876Z,7.20
2022-11-17T05:31:00.916Z,5.30
2022-11-17T05:32:00.944Z,6.57
2022-11-17T05:33:00.945Z,6.37
2022-11-17T05:34:02.631Z,7.00
2022-11-17T05:35:01.167Z,7.77
2022-11-17T05:36:00.959Z,7.73
2022-11-17T05:37:01.467Z,5.97
2022-11-17T05:38:00.929Z,6.57
2022-11-17T05:39:02.013Z,5.67
2022-11-17T05:40:01.223Z,7.37
2022-11-17T05:41:01.508Z,6.50
2022-11-17T05:42:01.259Z,6.37
2022-11-17T05:43:01.217Z,8.03
2022-11-17T05:44:00.987Z,7.27
2022-11-17T05:45:00.924Z,6.80
2022-11-17T05:46:01.256Z,6.57
2022-11-17T05:47:01.222Z,8.83
2022-11-17T05:48:01.174Z,5.57
2022-11-17T05:49:01.664Z,7.17
2022-11-17T05:50:00.961Z,7.70
2022-11-17T05:51:01.621Z,7.50
2022-11-17T05:52:01.283Z,7.77
2022-11-17T05:53:01.295Z,6.77
2022-11-17T05:54:00.953Z,7.17
2022-11-17T05:55:00.926Z,6.13
2022-11-17T05:56:12.900Z,8.83
2022-11-17T05:57:05.364Z,8.00
2022-11-17T05:58:08.098Z,8.20
2022-11-17T05:59:14.855Z,6.93
2022-11-17T06:00:03.048Z,7.03
2022-11-17T06:01:01.997Z,6.00
2022-11-17T06:02:06.723Z,7.60
2022-11-17T06:03:07.296Z,7.37
2022-11-17T06:04:03.900Z,6.77
2022-11-17T06:05:02.291Z,6.33
2022-11-17T06:06:00.925Z,7.23
2022-11-17T06:07:01.760Z,8.27
2022-11-17T06:08:01.260Z,7.37
2022-11-17T06:09:01.406Z,7.03
2022-11-17T06:10:01.540Z,6.83
2022-11-17T06:11:01.255Z,7.33
2022-11-17T06:12:05.936Z,8.13
2022-11-17T06:13:01.222Z,7.63
2022-11-17T06:14:00.913Z,7.97
2022-11-17T06:15:00.959Z,6.63
2022-11-17T06:16:07.002Z,7.70
2022-11-17T06:17:04.341Z,8.70
2022-11-17T06:18:04.975Z,7.73
2022-11-17T06:19:05.571Z,7.70
2022-11-17T06:20:06.819Z,6.93
2022-11-17T06:21:01.710Z,6.30
2022-11-17T06:22:13.161Z,7.83
2022-11-17T06:23:05.215Z,8.27
2022-11-17T06:24:03.413Z,8.77
2022-11-17T06:25:04.700Z,7.90
2022-11-17T06:26:05.094Z,8.30
2022-11-17T06:27:00.936Z,8.33
2022-11-17T06:28:03.578Z,7.37
2022-11-17T06:29:03.402Z,8.47
2022-11-17T06:30:03.588Z,7.13
2022-11-17T06:31:01.582Z,10.17
2022-11-17T06:32:01.618Z,10.30
2022-11-17T06:33:02.145Z,7.87
2022-11-17T06:34:02.237Z,8.50
2022-11-17T06:35:05.404Z,8.47
2022-11-17T06:36:04.843Z,8.90
2022-11-17T06:37:00.927Z,9.77
2022-11-17T06:38:01.213Z,8.87
2022-11-17T06:39:01.265Z,8.37
2022-11-17T06:40:01.289Z,7.77
2022-11-17T06:41:01.282Z,7.07
2022-11-17T06:42:01.213Z,8.53
2022-11-17T06:43:01.289Z,8.30
2022-11-17T06:44:01.327Z,7.00
2022-11-17T06:45:01.226Z,9.20
2022-11-17T06:46:03.169Z,9.73
2022-11-17T06:47:01.217Z,7.60
2022-11-17T06:48:01.316Z,8.60
2022-11-17T06:49:00.979Z,9.07
2022-11-17T06:50:00.931Z,7.73
2022-11-17T06:51:02.933Z,8.77
2022-11-17T06:52:01.226Z,9.23
2022-11-17T06:53:04.055Z,7.77
2022-11-17T06:54:01.762Z,12.97
2022-11-17T06:55:00.985Z,7.67
2022-11-17T06:56:01.383Z,9.80
2022-11-17T06:57:00.931Z,13.47
2022-11-17T06:58:04.000Z,7.97
2022-11-17T06:59:00.926Z,11.27
2022-11-17T07:00:01.549Z,10.93
2022-11-17T07:01:04.951Z,8.50
2022-11-17T07:02:00.913Z,10.90
2022-11-17T07:03:02.929Z,8.43
2022-11-17T07:04:00.963Z,7.93
2022-11-17T07:05:01.500Z,11.03
2022-11-17T07:06:02.144Z,9.33
2022-11-17T07:07:00.945Z,9.90
2022-11-17T07:08:03.112Z,12.53
2022-11-17T07:09:01.247Z,8.43
2022-11-17T07:10:01.239Z,9.80
2022-11-17T07:11:02.531Z,9.60
2022-11-17T07:12:00.918Z,11.03
2022-11-17T07:13:01.367Z,8.47
2022-11-17T07:14:00.929Z,11.53
2022-11-17T07:15:01.290Z,10.07
2022-11-17T07:16:04.108Z,11.67
2022-11-17T07:17:00.919Z,11.97
2022-11-17T07:18:00.923Z,10.80
2022-11-17T07:19:00.932Z,11.80
2022-11-17T07:20:00.925Z,13.70
2022-11-17T07:21:01.999Z,10.83
2022-11-17T07:22:02.472Z,10.43
2022-11-17T07:23:01.226Z,8.73
2022-11-17T07:24:01.002Z,8.33
2022-11-17T07:25:00.935Z,9.97
2022-11-17T07:26:02.023Z,10.37
2022-11-17T07:27:01.182Z,10.13
2022-11-17T07:28:01.404Z,9.67
2022-11-17T07:29:01.227Z,9.57
2022-11-17T07:30:01.281Z,10.47
2022-11-17T07:31:02.405Z,13.20
2022-11-17T07:32:01.019Z,10.63
2022-11-17T07:33:01.661Z,12.67
2022-11-17T07:34:00.921Z,11.57
2022-11-17T07:35:01.501Z,10.40
2022-11-17T07:36:04.033Z,10.87
2022-11-17T07:37:00.916Z,11.70
2022-11-17T07:38:01.207Z,9.20
2022-11-17T07:39:01.262Z,12.63
2022-11-17T07:40:00.925Z,10.20
2022-11-17T07:41:01.587Z,12.97
2022-11-17T07:42:00.919Z,11.00
2022-11-17T07:43:00.957Z,9.13
2022-11-17T07:44:00.941Z,10.80
2022-11-17T07:45:01.079Z,11.17
2022-11-17T07:46:04.274Z,9.43
2022-11-17T07:47:01.547Z,10.00
2022-11-17T07:48:03.088Z,10.87
2022-11-17T07:49:01.040Z,10.00
2022-11-17T07:50:01.255Z,13.93
2022-11-17T07:51:02.160Z,12.20
2022-11-17T07:52:01.259Z,13.40
2022-11-17T07:53:01.227Z,12.20
2022-11-17T07:54:01.015Z,11.40
2022-11-17T07:55:01.230Z,11.10
2022-11-17T07:56:03.527Z,9.87
2022-11-17T07:57:00.926Z,12.60
2022-11-17T07:58:01.502Z,9.80
2022-11-17T07:59:01.244Z,9.17
2022-11-17T08:00:01.294Z,10.87
2022-11-17T08:01:04.645Z,11.23
2022-11-17T08:02:01.286Z,10.00
2022-11-17T08:03:02.466Z,8.60
2022-11-17T08:04:01.264Z,12.00
2022-11-17T08:05:00.935Z,13.30
2022-11-17T08:06:01.579Z,11.33
2022-11-17T08:07:01.054Z,11.17
2022-11-17T08:08:01.263Z,10.93
2022-11-17T08:09:00.958Z,10.37
2022-11-17T08:10:01.040Z,9.37
2022-11-17T08:11:02.086Z,9.93
2022-11-17T08:12:00.916Z,11.13
2022-11-17T08:13:00.936Z,13.10
2022-11-17T08:14:01.269Z,12.67
2022-11-17T08:15:00.921Z,10.67
2022-11-17T08:16:01.938Z,11.50
2022-11-17T08:17:01.210Z,11.00
2022-11-17T08:18:02.965Z,9.40
2022-11-17T08:19:01.227Z,9.13
2022-11-17T08:20:00.938Z,12.53
2022-11-17T08:21:02.410Z,11.37
2022-11-17T08:22:01.142Z,11.47
2022-11-17T08:23:01.230Z,9.50
2022-11-17T08:24:00.932Z,12.13
2022-11-17T08:25:00.913Z,10.60
2022-11-17T08:26:02.392Z,10.57
2022-11-17T08:27:00.920Z,12.10
2022-11-17T08:28:00.919Z,12.63
2022-11-17T08:29:01.247Z,10.40
2022-11-17T08:30:01.243Z,11.20
2022-11-17T08:31:01.789Z,10.37
2022-11-17T08:32:00.919Z,12.50
2022-11-17T08:33:01.704Z,10.90
2022-11-17T08:34:01.242Z,10.23
2022-11-17T08:35:01.445Z,12.57
2022-11-17T08:36:03.224Z,11.63
2022-11-17T08:37:01.224Z,11.50
2022-11-17T08:38:00.936Z,12.87
2022-11-17T08:39:01.354Z,12.20
2022-11-17T08:40:00.934Z,13.33
2022-11-17T08:41:03.041Z,10.60
2022-11-17T08:42:00.916Z,11.43
2022-11-17T08:43:01.755Z,13.40
2022-11-17T08:44:01.300Z,9.77
2022-11-17T08:45:01.222Z,12.23
2022-11-17T08:46:01.701Z,11.43
2022-11-17T08:47:00.982Z,9.50
2022-11-17T08:48:01.020Z,9.40
2022-11-17T08:49:00.927Z,11.43
2022-11-17T08:50:00.937Z,10.00
2022-11-17T08:51:05.063Z,11.27
2022-11-17T08:52:01.248Z,12.07
2022-11-17T08:53:01.246Z,12.93
2022-11-17T08:54:01.236Z,9.53
2022-11-17T08:55:01.588Z,12.03
2022-11-17T08:56:01.296Z,13.30
2022-11-17T08:57:01.298Z,9.03
2022-11-17T08:58:00.906Z,13.70
2022-11-17T08:59:01.632Z,10.50
2022-11-17T09:00:01.525Z,11.17
2022-11-17T09:01:04.876Z,12.40
2022-11-17T09:02:01.217Z,10.03
2022-11-17T09:03:05.008Z,11.20
2022-11-17T09:04:01.222Z,10.37
2022-11-17T09:05:00.960Z,9.17
2022-11-17T09:06:03.560Z,10.77
2022-11-17T09:07:00.977Z,11.20
2022-11-17T09:08:16.306Z,9.70
2022-11-17T09:09:01.133Z,9.63
2022-11-17T09:10:01.830Z,10.47
2022-11-17T09:11:04.083Z,14.50
2022-11-17T09:12:01.450Z,15.03
2022-11-17T09:13:00.966Z,12.30
2022-11-17T09:14:00.959Z,11.40
2022-11-17T09:15:00.931Z,10.80
2022-11-17T09:16:01.792Z,9.80
2022-11-17T09:17:01.515Z,9.60
2022-11-17T09:18:01.267Z,9.60
2022-11-17T09:19:00.966Z,10.13
2022-11-17T09:20:00.984Z,9.93
2022-11-17T09:21:03.487Z,10.20
2022-11-17T09:22:01.314Z,13.13
2022-11-17T09:23:01.278Z,14.17
2022-11-17T09:24:00.948Z,11.77
2022-11-17T09:25:00.927Z,10.93
2022-11-17T09:26:04.996Z,10.90
2022-11-17T09:27:01.023Z,12.53
2022-11-17T09:28:01.194Z,14.20
2022-11-17T09:29:01.308Z,11.50
2022-11-17T09:30:01.257Z,11.80
2022-11-17T09:31:04.981Z,12.10
2022-11-17T09:32:01.793Z,13.70
2022-11-17T09:33:01.052Z,10.47
2022-11-17T09:34:05.377Z,12.13
2022-11-17T09:35:01.263Z,12.80
2022-11-17T09:36:01.495Z,11.50
2022-11-17T09:37:01.251Z,13.67
2022-11-17T09:38:01.241Z,9.33
2022-11-17T09:39:01.401Z,10.17
2022-11-17T09:40:00.930Z,10.33
2022-11-17T09:41:11.433Z,12.90
2022-11-17T09:42:00.937Z,10.17
2022-11-17T09:43:01.155Z,12.70
2022-11-17T09:44:12.396Z,9.23
2022-11-17T09:45:08.070Z,10.73
2022-11-17T09:46:11.341Z,13.07
2022-11-17T09:47:13.394Z,11.80
2022-11-17T09:48:34.064Z,12.17
2022-11-17T09:49:11.720Z,13.00
2022-11-17T09:50:09.482Z,11.30
2022-11-17T09:51:03.553Z,12.50
2022-11-17T09:52:13.188Z,11.73
2022-11-17T09:53:11.865Z,13.33
2022-11-17T09:54:07.123Z,10.60
2022-11-17T09:55:14.142Z,13.23
2022-11-17T09:56:03.647Z,11.57
2022-11-17T09:57:02.561Z,11.80
2022-11-17T09:58:10.734Z,11.37
2022-11-17T09:59:05.171Z,11.17
2022-11-17T10:00:11.343Z,13.10
2022-11-17T10:01:01.710Z,13.33
2022-11-17T10:02:01.044Z,11.37
2022-11-17T10:03:01.264Z,13.97
2022-11-17T10:04:01.256Z,11.23
2022-11-17T10:05:01.498Z,13.03
2022-11-17T10:06:06.163Z,13.10
2022-11-17T10:07:02.864Z,13.00
2022-11-17T10:08:06.240Z,13.47
2022-11-17T10:09:04.963Z,12.77
2022-11-17T10:10:02.901Z,13.73
2022-11-17T10:11:01.781Z,14.40
2022-11-17T10:12:14.348Z,12.23
2022-11-17T10:13:03.600Z,15.67
2022-11-17T10:14:10.457Z,14.83
2022-11-17T10:15:19.330Z,11.63
2022-11-17T10:16:04.368Z,11.50
2022-11-17T10:17:00.952Z,14.17
2022-11-17T10:18:00.958Z,12.47
2022-11-17T10:19:01.764Z,12.07
2022-11-17T10:20:01.223Z,12.40
2022-11-17T10:21:01.756Z,12.37
2022-11-17T10:22:16.277Z,13.40
2022-11-17T10:23:02.876Z,12.20
2022-11-17T10:24:01.225Z,14.10
2022-11-17T10:25:01.241Z,13.17
2022-11-17T10:26:06.187Z,15.00
2022-11-17T10:27:01.587Z,12.27
2022-11-17T10:28:01.867Z,13.17
2022-11-17T10:29:09.035Z,10.60
2022-11-17T10:30:04.251Z,13.27
2022-11-17T10:31:03.163Z,11.07
2022-11-17T10:32:12.621Z,16.23
2022-11-17T10:33:03.872Z,11.50
2022-11-17T10:34:01.387Z,12.13
2022-11-17T10:35:12.857Z,14.23
2022-11-17T10:36:04.972Z,15.60
2022-11-17T10:37:05.285Z,14.63
2022-11-17T10:38:04.003Z,12.33
2022-11-17T10:39:01.379Z,13.60
2022-11-17T10:40:13.490Z,12.97
2022-11-17T10:41:02.234Z,17.60
2022-11-17T10:42:12.300Z,13.33
2022-11-17T10:43:14.748Z,14.47
2022-11-17T10:44:05.335Z,15.57
2022-11-17T10:45:01.999Z,15.40
2022-11-17T10:46:05.468Z,12.47
2022-11-17T10:47:03.201Z,12.93
2022-11-17T10:48:19.156Z,12.60
2022-11-17T10:49:02.383Z,13.30
2022-11-17T10:50:11.714Z,15.13
2022-11-17T10:51:02.889Z,12.00
2022-11-17T10:52:13.511Z,12.23
2022-11-17T10:53:20.398Z,17.20
2022-11-17T10:54:05.229Z,14.30
2022-11-17T10:55:19.755Z,13.23
2022-11-17T10:56:05.614Z,14.20
2022-11-17T10:57:06.214Z,13.87
2022-11-17T10:58:08.663Z,15.53
2022-11-17T10:59:12.495Z,13.73
2022-11-17T11:00:01.373Z,15.37
2022-11-17T11:01:02.917Z,13.87
2022-11-17T11:02:20.406Z,13.73
2022-11-17T11:03:05.337Z,14.90
2022-11-17T11:04:02.208Z,15.00
2022-11-17T11:05:10.432Z,12.80
2022-11-17T11:06:03.997Z,11.93
2022-11-17T11:07:11.578Z,12.07
2022-11-17T11:08:16.873Z,13.67
2022-11-17T11:09:08.893Z,16.03
2022-11-17T11:10:11.977Z,11.87
2022-11-17T11:11:07.163Z,10.80
2022-11-17T11:12:04.318Z,12.67
2022-11-17T11:13:09.630Z,13.27
2022-11-17T11:14:09.920Z,14.40
2022-11-17T11:15:02.724Z,15.70
2022-11-17T11:16:01.249Z,12.33
2022-11-17T11:17:10.344Z,14.27
2022-11-17T11:18:04.914Z,11.47
2022-11-17T11:19:01.323Z,14.37
2022-11-17T11:20:01.317Z,12.50
2022-11-17T11:21:12.757Z,14.77
2022-11-17T11:22:21.608Z,11.37
2022-11-17T11:23:08.295Z,12.30
2022-11-17T11:24:14.808Z,16.70
2022-11-17T11:25:09.634Z,14.30
2022-11-17T11:26:15.971Z,14.80
2022-11-17T11:27:15.085Z,12.57
2022-11-17T11:28:16.855Z,15.50
2022-11-17T11:29:09.365Z,13.33
2022-11-17T11:30:03.692Z,15.37
2022-11-17T11:31:10.632Z,18.33
2022-11-17T11:32:17.931Z,14.67
2022-11-17T11:33:20.392Z,15.67
2022-11-17T11:34:18.771Z,14.20
2022-11-17T11:35:20.407Z,13.63
2022-11-17T11:36:13.489Z,12.87
2022-11-17T11:37:08.386Z,14.97
2022-11-17T11:38:10.588Z,13.87
2022-11-17T11:39:12.524Z,15.03
2022-11-17T11:40:13.149Z,12.87
2022-11-17T11:41:17.313Z,12.93
2022-11-17T11:42:16.826Z,13.07
2022-11-17T11:43:12.821Z,15.80
2022-11-17T11:44:19.220Z,15.63
2022-11-17T11:45:20.417Z,12.30
2022-11-17T11:46:10.822Z,12.27
2022-11-17T11:47:13.120Z,18.27
2022-11-17T11:48:10.985Z,13.47
2022-11-17T11:49:13.052Z,16.20
2022-11-17T11:50:10.180Z,12.77
2022-11-17T11:51:04.421Z,14.00
2022-11-17T11:52:05.481Z,14.97
2022-11-17T11:53:10.400Z,13.27
2022-11-17T11:54:09.541Z,12.27
2022-11-17T11:55:06.528Z,12.30
2022-11-17T11:56:11.332Z,14.93
2022-11-17T11:57:01.434Z,15.43
2022-11-17T11:58:07.889Z,14.20
2022-11-17T11:59:05.538Z,16.20
2022-11-17T12:00:05.138Z,13.00
2022-11-17T12:01:06.109Z,15.47
2022-11-17T12:02:16.673Z,13.93
2022-11-17T12:03:12.443Z,13.33
2022-11-17T12:04:14.264Z,13.70
2022-11-17T12:05:12.507Z,12.37
2022-11-17T12:06:12.621Z,12.57
2022-11-17T12:07:13.472Z,15.40
2022-11-17T12:08:11.130Z,14.70
2022-11-17T12:09:15.946Z,14.47
2022-11-17T12:10:06.105Z,14.73
2022-11-17T12:11:05.750Z,14.70
2022-11-17T12:12:07.788Z,12.33
2022-11-17T12:13:02.637Z,15.13
2022-11-17T12:14:04.142Z,14.10
2022-11-17T12:15:12.191Z,16.57
2022-11-17T12:16:18.800Z,15.60
2022-11-17T12:17:05.348Z,17.67
2022-11-17T12:18:04.870Z,15.73
2022-11-17T12:19:01.474Z,14.80
2022-11-17T12:20:07.583Z,13.40
2022-11-17T12:21:04.592Z,13.47
2022-11-17T12:22:01.267Z,12.40
2022-11-17T12:23:17.267Z,12.87
2022-11-17T12:24:15.135Z,14.00
2022-11-17T12:25:05.123Z,13.83
2022-11-17T12:26:01.849Z,14.63
2022-11-17T12:27:20.401Z,10.07
2022-11-17T12:28:20.395Z,12.77
2022-11-17T12:29:20.404Z,16.43
2022-11-17T12:30:02.864Z,14.13
2022-11-17T12:31:09.453Z,13.67
2022-11-17T12:32:01.827Z,12.83
2022-11-17T12:33:03.060Z,12.60
2022-11-17T12:34:20.399Z,14.63
2022-11-17T12:35:20.398Z,14.83
2022-11-17T12:36:15.765Z,15.17
2022-11-17T12:37:17.196Z,13.60
2022-11-17T12:38:20.402Z,12.97
2022-11-17T12:39:03.212Z,15.53
2022-11-17T12:40:06.343Z,15.70
2022-11-17T12:41:00.934Z,14.60
2022-11-17T12:42:05.880Z,13.50
2022-11-17T12:43:20.389Z,11.87
2022-11-17T12:44:20.410Z,13.83
2022-11-17T12:45:04.583Z,14.47
2022-11-17T12:46:16.475Z,11.80
2022-11-17T12:47:10.813Z,12.07
2022-11-17T12:48:26.739Z,14.27
2022-11-17T12:49:12.502Z,14.30
2022-11-17T12:50:20.412Z,15.23
2022-11-17T12:51:08.981Z,10.93
2022-11-17T12:52:12.268Z,13.70
2022-11-17T12:53:18.845Z,13.30
2022-11-17T12:54:11.954Z,11.53
2022-11-17T12:55:12.392Z,13.07
2022-11-17T12:56:17.192Z,13.33
2022-11-17T12:57:06.731Z,14.10
2022-11-17T12:58:13.339Z,13.50
2022-11-17T12:59:13.946Z,15.03
2022-11-17T13:00:05.197Z,11.03
2022-11-17T13:01:11.760Z,14.93
2022-11-17T13:02:17.747Z,10.10
2022-11-17T13:03:08.118Z,10.40
2022-11-17T13:04:09.527Z,12.27
2022-11-17T13:05:05.924Z,10.83
2022-11-17T13:06:34.479Z,11.13
2022-11-17T13:07:04.017Z,11.90